sensor_id;sensor_type;location;lat;lon;timestamp;pressure;altitude;pressure_sealevel;temperature;humidity
73245;BME280;61460;41.158;-73.238;2023-05-29T00:00:00;101466.56;;;27.47;38.75
73245;BME280;61460;41.158;-73.238;2023-05-29T00:02:31;101469.45;;;24.76;43.83
73245;BME280;61460;41.158;-73.238;2023-05-29T00:05:01;101470.80;;;24.73;45.54
73245;BME280;61460;41.158;-73.238;2023-05-29T00:07:32;101470.39;;;25.84;41.54
73245;BME280;61460;41.158;-73.238;2023-05-29T00:10:02;101468.28;;;26.28;40.74
73245;BME280;61460;41.158;-73.238;2023-05-29T00:12:32;101460.98;;;26.45;40.36
73245;BME280;61460;41.158;-73.238;2023-05-29T00:15:04;101471.32;;;26.58;39.97
73245;BME280;61460;41.158;-73.238;2023-05-29T00:17:34;101469.24;;;26.72;39.89
73245;BME280;61460;41.158;-73.238;2023-05-29T00:20:05;101466.56;;;26.86;39.42
73245;BME280;61460;41.158;-73.238;2023-05-29T00:22:34;101471.67;;;26.93;39.43
73245;BME280;61460;41.158;-73.238;2023-05-29T00:25:05;101469.92;;;27.02;39.23
73245;BME280;61460;41.158;-73.238;2023-05-29T00:27:36;101470.83;;;27.06;39.10
73245;BME280;61460;41.158;-73.238;2023-05-29T00:30:07;101469.76;;;27.04;39.20
73245;BME280;61460;41.158;-73.238;2023-05-29T00:32:37;101466.48;;;27.13;39.09
73245;BME280;61460;41.158;-73.238;2023-05-29T00:35:08;101467.33;;;27.19;39.08
73245;BME280;61460;41.158;-73.238;2023-05-29T00:37:38;101471.91;;;27.24;38.93
73245;BME280;61460;41.158;-73.238;2023-05-29T00:40:09;101472.63;;;27.16;39.19
73245;BME280;61460;41.158;-73.238;2023-05-29T00:42:39;101476.75;;;27.19;39.20
73245;BME280;61460;41.158;-73.238;2023-05-29T00:45:12;101477.70;;;27.29;38.91
73245;BME280;61460;41.158;-73.238;2023-05-29T00:47:40;101475.27;;;27.29;38.95
73245;BME280;61460;41.158;-73.238;2023-05-29T00:50:11;101480.96;;;27.29;38.92
73245;BME280;61460;41.158;-73.238;2023-05-29T00:52:42;101488.86;;;27.38;38.90
73245;BME280;61460;41.158;-73.238;2023-05-29T00:55:12;101487.37;;;27.42;39.13
73245;BME280;61460;41.158;-73.238;2023-05-29T00:57:42;101491.34;;;27.51;39.12
73245;BME280;61460;41.158;-73.238;2023-05-29T01:00:13;101491.83;;;27.56;39.00
73245;BME280;61460;41.158;-73.238;2023-05-29T01:02:43;101491.57;;;27.61;38.71
73245;BME280;61460;41.158;-73.238;2023-05-29T01:05:13;101504.69;;;24.91;44.40
73245;BME280;61460;41.158;-73.238;2023-05-29T01:07:43;101511.26;;;24.64;46.84
73245;BME280;61460;41.158;-73.238;2023-05-29T01:10:14;101510.70;;;25.83;42.44
73245;BME280;61460;41.158;-73.238;2023-05-29T01:12:49;101513.84;;;26.32;41.50
73245;BME280;61460;41.158;-73.238;2023-05-29T01:15:23;101513.06;;;26.57;41.21
73245;BME280;61460;41.158;-73.238;2023-05-29T01:17:59;101521.41;;;26.67;41.11
73245;BME280;61460;41.158;-73.238;2023-05-29T01:20:25;101524.17;;;26.87;40.84
73245;BME280;61460;41.158;-73.238;2023-05-29T01:23:04;101530.05;;;27.08;40.57
73245;BME280;61460;41.158;-73.238;2023-05-29T01:25:21;101533.93;;;27.17;40.53
73245;BME280;61460;41.158;-73.238;2023-05-29T01:27:48;101528.67;;;27.31;40.11
73245;BME280;61460;41.158;-73.238;2023-05-29T01:30:17;101527.23;;;27.48;40.07
73245;BME280;61460;41.158;-73.238;2023-05-29T01:32:47;101519.33;;;27.52;40.15
73245;BME280;61460;41.158;-73.238;2023-05-29T01:35:17;101514.32;;;27.59;39.72
73245;BME280;61460;41.158;-73.238;2023-05-29T01:37:47;101513.66;;;27.66;39.88
73245;BME280;61460;41.158;-73.238;2023-05-29T01:40:18;101515.18;;;27.72;39.93
73245;BME280;61460;41.158;-73.238;2023-05-29T01:42:49;101510.50;;;27.76;39.73
73245;BME280;61460;41.158;-73.238;2023-05-29T01:45:19;101517.17;;;27.81;39.82
73245;BME280;61460;41.158;-73.238;2023-05-29T01:47:49;101523.42;;;27.85;39.65
73245;BME280;61460;41.158;-73.238;2023-05-29T01:50:19;101525.66;;;27.85;39.83
73245;BME280;61460;41.158;-73.238;2023-05-29T01:52:50;101524.12;;;27.91;39.70
73245;BME280;61460;41.158;-73.238;2023-05-29T01:55:19;101524.37;;;27.93;39.87
73245;BME280;61460;41.158;-73.238;2023-05-29T01:57:49;101523.06;;;27.98;39.72
73245;BME280;61460;41.158;-73.238;2023-05-29T02:00:20;101529.27;;;27.87;39.98
73245;BME280;61460;41.158;-73.238;2023-05-29T02:02:50;101531.34;;;27.86;40.39
73245;BME280;61460;41.158;-73.238;2023-05-29T02:05:22;101529.64;;;27.88;39.94
73245;BME280;61460;41.158;-73.238;2023-05-29T02:07:51;101528.41;;;27.87;39.83
73245;BME280;61460;41.158;-73.238;2023-05-29T02:10:21;101532.88;;;27.83;39.65
73245;BME280;61460;41.158;-73.238;2023-05-29T02:12:52;101533.07;;;27.75;39.80
73245;BME280;61460;41.158;-73.238;2023-05-29T02:15:24;101534.92;;;27.77;39.70
73245;BME280;61460;41.158;-73.238;2023-05-29T02:17:54;101536.76;;;27.75;39.55
73245;BME280;61460;41.158;-73.238;2023-05-29T02:20:24;101535.52;;;27.70;39.63
73245;BME280;61460;41.158;-73.238;2023-05-29T02:22:55;101541.18;;;27.71;39.48
73245;BME280;61460;41.158;-73.238;2023-05-29T02:25:25;101537.40;;;27.70;39.38
73245;BME280;61460;41.158;-73.238;2023-05-29T02:27:56;101534.83;;;27.58;41.08
73245;BME280;61460;41.158;-73.238;2023-05-29T02:30:27;101539.24;;;25.12;45.48
73245;BME280;61460;41.158;-73.238;2023-05-29T02:32:57;101537.19;;;24.02;47.34
73245;BME280;61460;41.158;-73.238;2023-05-29T02:35:27;101530.80;;;25.21;46.38
73245;BME280;61460;41.158;-73.238;2023-05-29T02:37:57;101531.70;;;25.95;44.52
73245;BME280;61460;41.158;-73.238;2023-05-29T02:40:27;101533.34;;;26.32;44.35
73245;BME280;61460;41.158;-73.238;2023-05-29T02:42:58;101531.87;;;26.46;43.94
73245;BME280;61460;41.158;-73.238;2023-05-29T02:45:28;101534.39;;;26.66;43.60
73245;BME280;61460;41.158;-73.238;2023-05-29T02:47:59;101529.44;;;26.77;43.40
73245;BME280;61460;41.158;-73.238;2023-05-29T02:50:29;101533.91;;;26.84;43.41
73245;BME280;61460;41.158;-73.238;2023-05-29T02:52:59;101530.78;;;26.79;43.66
73245;BME280;61460;41.158;-73.238;2023-05-29T02:55:29;101532.68;;;26.79;43.89
73245;BME280;61460;41.158;-73.238;2023-05-29T02:58:00;101526.87;;;26.93;43.56
73245;BME280;61460;41.158;-73.238;2023-05-29T03:00:31;101519.87;;;26.92;43.81
73245;BME280;61460;41.158;-73.238;2023-05-29T03:03:01;101513.90;;;26.91;43.85
73245;BME280;61460;41.158;-73.238;2023-05-29T03:05:31;101519.00;;;24.90;47.16
73245;BME280;61460;41.158;-73.238;2023-05-29T03:08:02;101506.69;;;23.74;49.12
73245;BME280;61460;41.158;-73.238;2023-05-29T03:10:33;101504.34;;;25.13;47.41
73245;BME280;61460;41.158;-73.238;2023-05-29T03:13:03;101506.39;;;25.69;45.88
73245;BME280;61460;41.158;-73.238;2023-05-29T03:15:33;101510.07;;;26.13;45.50
73245;BME280;61460;41.158;-73.238;2023-05-29T03:18:04;101509.20;;;26.20;45.38
73245;BME280;61460;41.158;-73.238;2023-05-29T03:20:35;101512.91;;;26.31;45.21
73245;BME280;61460;41.158;-73.238;2023-05-29T03:23:05;101517.83;;;26.37;45.02
73245;BME280;61460;41.158;-73.238;2023-05-29T03:25:37;101513.82;;;26.54;44.65
73245;BME280;61460;41.158;-73.238;2023-05-29T03:28:06;101513.80;;;26.56;44.66
73245;BME280;61460;41.158;-73.238;2023-05-29T03:30:36;101516.41;;;26.59;44.72
73245;BME280;61460;41.158;-73.238;2023-05-29T03:33:07;101510.71;;;26.71;44.45
73245;BME280;61460;41.158;-73.238;2023-05-29T03:35:37;101506.64;;;26.75;44.36
73245;BME280;61460;41.158;-73.238;2023-05-29T03:38:09;101505.19;;;26.81;44.35
73245;BME280;61460;41.158;-73.238;2023-05-29T03:40:37;101506.57;;;26.90;44.21
73245;BME280;61460;41.158;-73.238;2023-05-29T03:43:07;101504.86;;;26.85;44.36
73245;BME280;61460;41.158;-73.238;2023-05-29T03:45:38;101511.77;;;25.04;47.29
73245;BME280;61460;41.158;-73.238;2023-05-29T03:48:08;101516.62;;;23.42;50.52
73245;BME280;61460;41.158;-73.238;2023-05-29T03:50:39;101518.19;;;25.03;48.03
73245;BME280;61460;41.158;-73.238;2023-05-29T03:53:09;101514.30;;;25.57;46.57
73245;BME280;61460;41.158;-73.238;2023-05-29T03:55:39;101508.82;;;25.86;46.07
73245;BME280;61460;41.158;-73.238;2023-05-29T03:58:10;101502.78;;;26.05;45.85
73245;BME280;61460;41.158;-73.238;2023-05-29T04:00:40;101504.93;;;26.11;45.76
73245;BME280;61460;41.158;-73.238;2023-05-29T04:03:12;101501.56;;;26.28;45.36
73245;BME280;61460;41.158;-73.238;2023-05-29T04:05:42;101496.61;;;26.35;45.27
73245;BME280;61460;41.158;-73.238;2023-05-29T04:08:13;101496.37;;;26.61;44.78
73245;BME280;61460;41.158;-73.238;2023-05-29T04:10:43;101485.46;;;26.57;45.07
73245;BME280;61460;41.158;-73.238;2023-05-29T04:13:14;101483.61;;;26.64;44.98
73245;BME280;61460;41.158;-73.238;2023-05-29T04:15:44;101482.81;;;26.64;44.92
73245;BME280;61460;41.158;-73.238;2023-05-29T04:18:14;101487.16;;;26.71;44.97
73245;BME280;61460;41.158;-73.238;2023-05-29T04:20:45;101483.35;;;26.69;44.95
73245;BME280;61460;41.158;-73.238;2023-05-29T04:23:15;101481.23;;;26.76;44.93
73245;BME280;61460;41.158;-73.238;2023-05-29T04:25:46;101476.46;;;26.81;44.94
73245;BME280;61460;41.158;-73.238;2023-05-29T04:28:16;101472.15;;;26.73;45.21
73245;BME280;61460;41.158;-73.238;2023-05-29T04:30:47;101473.22;;;26.65;45.28
73245;BME280;61460;41.158;-73.238;2023-05-29T04:33:18;101471.57;;;26.79;44.96
73245;BME280;61460;41.158;-73.238;2023-05-29T04:35:47;101471.13;;;26.72;45.14
73245;BME280;61460;41.158;-73.238;2023-05-29T04:38:18;101473.30;;;24.20;49.40
73245;BME280;61460;41.158;-73.238;2023-05-29T04:40:48;101473.83;;;23.68;50.97
73245;BME280;61460;41.158;-73.238;2023-05-29T04:43:20;101474.93;;;25.18;47.73
73245;BME280;61460;41.158;-73.238;2023-05-29T04:45:51;101468.58;;;25.53;46.86
73245;BME280;61460;41.158;-73.238;2023-05-29T04:48:20;101471.16;;;25.84;46.29
73245;BME280;61460;41.158;-73.238;2023-05-29T04:50:50;101472.66;;;25.90;46.14
73245;BME280;61460;41.158;-73.238;2023-05-29T04:53:21;101470.02;;;26.14;45.65
73245;BME280;61460;41.158;-73.238;2023-05-29T04:55:51;101473.38;;;26.00;46.03
73245;BME280;61460;41.158;-73.238;2023-05-29T04:58:24;101468.17;;;26.23;45.50
73245;BME280;61460;41.158;-73.238;2023-05-29T05:00:52;101463.14;;;26.29;45.42
73245;BME280;61460;41.158;-73.238;2023-05-29T05:03:24;101462.86;;;26.37;45.20
73245;BME280;61460;41.158;-73.238;2023-05-29T05:05:54;101458.77;;;26.49;44.99
73245;BME280;61460;41.158;-73.238;2023-05-29T05:08:24;101457.57;;;26.34;45.36
73245;BME280;61460;41.158;-73.238;2023-05-29T05:10:54;101451.29;;;26.50;44.99
73245;BME280;61460;41.158;-73.238;2023-05-29T05:13:25;101445.88;;;26.46;45.16
73245;BME280;61460;41.158;-73.238;2023-05-29T05:15:56;101437.89;;;26.59;44.89
73245;BME280;61460;41.158;-73.238;2023-05-29T05:18:26;101431.95;;;26.52;45.06
73245;BME280;61460;41.158;-73.238;2023-05-29T05:20:56;101431.38;;;26.40;45.69
73245;BME280;61460;41.158;-73.238;2023-05-29T05:23:27;101429.37;;;26.36;45.77
73245;BME280;61460;41.158;-73.238;2023-05-29T05:25:57;101427.66;;;26.37;45.63
73245;BME280;61460;41.158;-73.238;2023-05-29T05:28:28;101430.21;;;26.42;45.65
73245;BME280;61460;41.158;-73.238;2023-05-29T05:30:58;101420.99;;;26.54;45.58
73245;BME280;61460;41.158;-73.238;2023-05-29T05:33:29;101422.09;;;26.43;45.86
73245;BME280;61460;41.158;-73.238;2023-05-29T05:35:59;101412.35;;;26.57;45.69
73245;BME280;61460;41.158;-73.238;2023-05-29T05:38:29;101416.71;;;24.26;49.44
73245;BME280;61460;41.158;-73.238;2023-05-29T05:41:00;101409.66;;;24.53;48.63
73245;BME280;61460;41.158;-73.238;2023-05-29T05:43:31;101404.72;;;25.08;47.88
73245;BME280;61460;41.158;-73.238;2023-05-29T05:46:01;101402.16;;;25.41;47.15
73245;BME280;61460;41.158;-73.238;2023-05-29T05:48:32;101400.04;;;25.60;46.92
73245;BME280;61460;41.158;-73.238;2023-05-29T05:51:02;101394.57;;;25.59;47.13
73245;BME280;61460;41.158;-73.238;2023-05-29T05:53:33;101384.93;;;25.85;46.71
73245;BME280;61460;41.158;-73.238;2023-05-29T05:56:04;101383.42;;;25.83;46.92
73245;BME280;61460;41.158;-73.238;2023-05-29T05:58:33;101382.04;;;26.06;46.43
73245;BME280;61460;41.158;-73.238;2023-05-29T06:01:03;101373.99;;;26.08;46.50
73245;BME280;61460;41.158;-73.238;2023-05-29T06:03:33;101373.84;;;26.04;46.63
73245;BME280;61460;41.158;-73.238;2023-05-29T06:06:04;101366.45;;;26.04;46.66
73245;BME280;61460;41.158;-73.238;2023-05-29T06:08:34;101367.21;;;26.11;46.65
73245;BME280;61460;41.158;-73.238;2023-05-29T06:11:04;101366.46;;;26.09;46.69
73245;BME280;61460;41.158;-73.238;2023-05-29T06:13:35;101367.25;;;26.12;46.69
73245;BME280;61460;41.158;-73.238;2023-05-29T06:16:06;101375.79;;;26.11;46.85
73245;BME280;61460;41.158;-73.238;2023-05-29T06:18:36;101379.26;;;26.24;46.65
73245;BME280;61460;41.158;-73.238;2023-05-29T06:21:07;101378.52;;;26.17;46.86
73245;BME280;61460;41.158;-73.238;2023-05-29T06:23:38;101373.78;;;26.31;46.73
73245;BME280;61460;41.158;-73.238;2023-05-29T06:26:08;101366.50;;;26.42;46.56
73245;BME280;61460;41.158;-73.238;2023-05-29T06:28:39;101363.71;;;26.49;46.56
73245;BME280;61460;41.158;-73.238;2023-05-29T06:31:09;101364.31;;;26.33;46.86
73245;BME280;61460;41.158;-73.238;2023-05-29T06:33:39;101357.68;;;26.44;46.57
73245;BME280;61460;41.158;-73.238;2023-05-29T06:36:09;101355.75;;;26.44;46.56
73245;BME280;61460;41.158;-73.238;2023-05-29T06:38:40;101352.97;;;26.39;46.63
73245;BME280;61460;41.158;-73.238;2023-05-29T06:41:10;101351.03;;;26.31;46.90
73245;BME280;61460;41.158;-73.238;2023-05-29T06:43:41;101345.47;;;26.17;47.22
73245;BME280;61460;41.158;-73.238;2023-05-29T06:46:11;101347.98;;;26.34;46.85
73245;BME280;61460;41.158;-73.238;2023-05-29T06:48:42;101347.72;;;26.23;47.11
73245;BME280;61460;41.158;-73.238;2023-05-29T06:51:12;101346.87;;;26.26;46.88
73245;BME280;61460;41.158;-73.238;2023-05-29T06:53:43;101340.58;;;26.30;46.94
73245;BME280;61460;41.158;-73.238;2023-05-29T06:56:13;101335.38;;;26.27;46.71
73245;BME280;61460;41.158;-73.238;2023-05-29T06:58:44;101334.00;;;26.28;46.76
73245;BME280;61460;41.158;-73.238;2023-05-29T07:01:14;101323.86;;;26.25;46.75
73245;BME280;61460;41.158;-73.238;2023-05-29T07:03:46;101321.46;;;26.15;47.11
73245;BME280;61460;41.158;-73.238;2023-05-29T07:06:15;101320.92;;;26.31;46.78
73245;BME280;61460;41.158;-73.238;2023-05-29T07:08:45;101317.47;;;26.46;46.49
73245;BME280;61460;41.158;-73.238;2023-05-29T07:11:16;101317.69;;;26.53;46.33
73245;BME280;61460;41.158;-73.238;2023-05-29T07:13:47;101320.82;;;26.56;46.36
73245;BME280;61460;41.158;-73.238;2023-05-29T07:16:17;101321.44;;;26.31;46.97
73245;BME280;61460;41.158;-73.238;2023-05-29T07:18:48;101316.20;;;26.42;46.76
73245;BME280;61460;41.158;-73.238;2023-05-29T07:21:19;101322.48;;;26.43;46.57
73245;BME280;61460;41.158;-73.238;2023-05-29T07:23:49;101330.78;;;26.50;46.42
73245;BME280;61460;41.158;-73.238;2023-05-29T07:26:20;101325.78;;;26.30;46.89
73245;BME280;61460;41.158;-73.238;2023-05-29T07:28:50;101328.15;;;26.45;46.54
73245;BME280;61460;41.158;-73.238;2023-05-29T07:31:21;101325.69;;;26.29;46.93
73245;BME280;61460;41.158;-73.238;2023-05-29T07:33:52;101329.16;;;24.05;50.49
73245;BME280;61460;41.158;-73.238;2023-05-29T07:36:22;101333.55;;;23.81;50.85
73245;BME280;61460;41.158;-73.238;2023-05-29T07:38:53;101329.32;;;24.76;49.07
73245;BME280;61460;41.158;-73.238;2023-05-29T07:41:24;101332.31;;;25.23;48.01
73245;BME280;61460;41.158;-73.238;2023-05-29T07:43:54;101328.83;;;25.31;47.88
73245;BME280;61460;41.158;-73.238;2023-05-29T07:46:25;101328.22;;;25.40;47.78
73245;BME280;61460;41.158;-73.238;2023-05-29T07:48:56;101326.69;;;25.46;47.69
73245;BME280;61460;41.158;-73.238;2023-05-29T07:51:26;101327.46;;;25.59;47.48
73245;BME280;61460;41.158;-73.238;2023-05-29T07:53:57;101333.99;;;25.61;47.53
73245;BME280;61460;41.158;-73.238;2023-05-29T07:56:27;101340.54;;;25.68;47.49
73245;BME280;61460;41.158;-73.238;2023-05-29T07:58:57;101341.30;;;25.66;47.54
73245;BME280;61460;41.158;-73.238;2023-05-29T08:01:27;101339.38;;;25.92;47.18
73245;BME280;61460;41.158;-73.238;2023-05-29T08:03:57;101337.24;;;25.98;47.13
73245;BME280;61460;41.158;-73.238;2023-05-29T08:06:27;101337.38;;;25.91;47.34
73245;BME280;61460;41.158;-73.238;2023-05-29T08:08:58;101333.92;;;25.94;47.21
73245;BME280;61460;41.158;-73.238;2023-05-29T08:11:28;101326.37;;;26.08;46.98
73245;BME280;61460;41.158;-73.238;2023-05-29T08:13:59;101330.20;;;25.90;47.55
73245;BME280;61460;41.158;-73.238;2023-05-29T08:16:29;101326.44;;;25.95;47.48
73245;BME280;61460;41.158;-73.238;2023-05-29T08:18:59;101327.68;;;25.94;47.43
73245;BME280;61460;41.158;-73.238;2023-05-29T08:21:30;101332.15;;;25.99;47.45
73245;BME280;61460;41.158;-73.238;2023-05-29T08:24:03;101332.30;;;25.92;47.47
73245;BME280;61460;41.158;-73.238;2023-05-29T08:26:30;101327.83;;;26.12;47.21
73245;BME280;61460;41.158;-73.238;2023-05-29T08:29:01;101327.09;;;26.30;46.80
73245;BME280;61460;41.158;-73.238;2023-05-29T08:31:31;101331.18;;;26.33;46.71
73245;BME280;61460;41.158;-73.238;2023-05-29T08:34:02;101332.59;;;26.16;47.21
73245;BME280;61460;41.158;-73.238;2023-05-29T08:36:33;101338.70;;;26.05;47.51
73245;BME280;61460;41.158;-73.238;2023-05-29T08:39:03;101332.14;;;26.06;47.51
73245;BME280;61460;41.158;-73.238;2023-05-29T08:41:41;101325.22;;;25.99;47.65
73245;BME280;61460;41.158;-73.238;2023-05-29T08:44:05;101322.44;;;26.10;47.43
73245;BME280;61460;41.158;-73.238;2023-05-29T08:46:37;101328.51;;;26.05;47.63
73245;BME280;61460;41.158;-73.238;2023-05-29T08:49:05;101330.85;;;26.01;47.53
73245;BME280;61460;41.158;-73.238;2023-05-29T08:51:41;101321.10;;;26.07;47.43
73245;BME280;61460;41.158;-73.238;2023-05-29T08:54:06;101324.80;;;26.11;47.45
73245;BME280;61460;41.158;-73.238;2023-05-29T08:56:36;101320.03;;;26.10;47.37
73245;BME280;61460;41.158;-73.238;2023-05-29T08:59:08;101326.22;;;26.09;47.41
73245;BME280;61460;41.158;-73.238;2023-05-29T09:01:38;101330.82;;;26.05;47.33
73245;BME280;61460;41.158;-73.238;2023-05-29T09:04:08;101333.27;;;25.91;47.40
73245;BME280;61460;41.158;-73.238;2023-05-29T09:06:39;101332.32;;;26.04;47.50
73245;BME280;61460;41.158;-73.238;2023-05-29T09:09:09;101339.69;;;26.10;47.30
73245;BME280;61460;41.158;-73.238;2023-05-29T09:11:39;101346.28;;;26.00;47.36
73245;BME280;61460;41.158;-73.238;2023-05-29T09:14:16;101346.20;;;26.01;47.41
73245;BME280;61460;41.158;-73.238;2023-05-29T09:16:42;101348.22;;;25.94;47.54
73245;BME280;61460;41.158;-73.238;2023-05-29T09:19:11;101351.92;;;26.01;47.28
73245;BME280;61460;41.158;-73.238;2023-05-29T09:21:42;101361.59;;;26.01;47.21
73245;BME280;61460;41.158;-73.238;2023-05-29T09:24:14;101368.95;;;26.07;46.99
73245;BME280;61460;41.158;-73.238;2023-05-29T09:26:48;101376.75;;;25.89;47.23
73245;BME280;61460;41.158;-73.238;2023-05-29T09:29:13;101375.88;;;25.93;47.04
73245;BME280;61460;41.158;-73.238;2023-05-29T09:31:46;101374.66;;;26.12;46.59
73245;BME280;61460;41.158;-73.238;2023-05-29T09:34:15;101373.12;;;26.13;46.48
73245;BME280;61460;41.158;-73.238;2023-05-29T09:36:44;101375.43;;;25.82;47.13
73245;BME280;61460;41.158;-73.238;2023-05-29T09:39:15;101377.33;;;25.99;46.75
73245;BME280;61460;41.158;-73.238;2023-05-29T09:41:45;101382.85;;;25.98;46.56
73245;BME280;61460;41.158;-73.238;2023-05-29T09:44:16;101391.55;;;26.08;46.33
73245;BME280;61460;41.158;-73.238;2023-05-29T09:46:49;101392.42;;;25.95;46.66
73245;BME280;61460;41.158;-73.238;2023-05-29T09:49:22;101393.75;;;26.00;46.34
73245;BME280;61460;41.158;-73.238;2023-05-29T09:51:48;101398.23;;;25.91;46.57
73245;BME280;61460;41.158;-73.238;2023-05-29T09:54:18;101398.98;;;26.07;46.23
73245;BME280;61460;41.158;-73.238;2023-05-29T09:56:50;101400.05;;;25.91;46.55
73245;BME280;61460;41.158;-73.238;2023-05-29T09:59:19;101401.12;;;25.92;46.47
73245;BME280;61460;41.158;-73.238;2023-05-29T10:02:00;101404.82;;;26.08;46.24
73245;BME280;61460;41.158;-73.238;2023-05-29T10:04:21;101407.01;;;26.00;46.12
73245;BME280;61460;41.158;-73.238;2023-05-29T10:06:51;101409.91;;;26.14;45.99
73245;BME280;61460;41.158;-73.238;2023-05-29T10:09:22;101412.14;;;26.01;46.21
73245;BME280;61460;41.158;-73.238;2023-05-29T10:11:53;101412.80;;;26.04;46.13
73245;BME280;61460;41.158;-73.238;2023-05-29T10:14:23;101409.66;;;26.20;45.72
73245;BME280;61460;41.158;-73.238;2023-05-29T10:16:57;101412.88;;;26.17;45.77
73245;BME280;61460;41.158;-73.238;2023-05-29T10:19:27;101417.26;;;26.22;45.37
73245;BME280;61460;41.158;-73.238;2023-05-29T10:21:54;101416.70;;;26.19;45.29
73245;BME280;61460;41.158;-73.238;2023-05-29T10:24:26;101415.61;;;26.08;45.55
73245;BME280;61460;41.158;-73.238;2023-05-29T10:26:55;101418.29;;;26.07;45.55
73245;BME280;61460;41.158;-73.238;2023-05-29T10:29:29;101419.93;;;26.03;45.55
73245;BME280;61460;41.158;-73.238;2023-05-29T10:32:05;101427.81;;;26.03;45.47
73245;BME280;61460;41.158;-73.238;2023-05-29T10:34:31;101437.88;;;26.03;45.42
73245;BME280;61460;41.158;-73.238;2023-05-29T10:37:06;101450.85;;;26.03;45.72
73245;BME280;61460;41.158;-73.238;2023-05-29T10:39:27;101477.80;;;25.98;45.57
73245;BME280;61460;41.158;-73.238;2023-05-29T10:41:57;101467.41;;;25.91;45.60
73245;BME280;61460;41.158;-73.238;2023-05-29T10:47:04;101477.71;;;26.06;45.07
73245;BME280;61460;41.158;-73.238;2023-05-29T10:49:30;101480.97;;;25.96;45.23
73245;BME280;61460;41.158;-73.238;2023-05-29T10:52:00;101487.93;;;25.99;45.08
73245;BME280;61460;41.158;-73.238;2023-05-29T10:57:02;101497.44;;;26.01;44.89
73245;BME280;61460;41.158;-73.238;2023-05-29T10:59:36;101504.26;;;26.03;44.82
73245;BME280;61460;41.158;-73.238;2023-05-29T11:02:04;101508.18;;;25.99;44.82
73245;BME280;61460;41.158;-73.238;2023-05-29T11:04:32;101505.24;;;26.05;44.62
73245;BME280;61460;41.158;-73.238;2023-05-29T11:07:03;101508.45;;;25.97;44.76
73245;BME280;61460;41.158;-73.238;2023-05-29T11:09:34;101511.15;;;26.02;44.70
73245;BME280;61460;41.158;-73.238;2023-05-29T11:17:05;101517.07;;;26.07;44.56
73245;BME280;61460;41.158;-73.238;2023-05-29T11:19:36;101517.30;;;25.93;44.90
73245;BME280;61460;41.158;-73.238;2023-05-29T11:22:09;101532.49;;;26.07;44.65
73245;BME280;61460;41.158;-73.238;2023-05-29T11:24:36;101537.41;;;26.15;44.64
73245;BME280;61460;41.158;-73.238;2023-05-29T11:27:06;101541.67;;;26.07;44.83
73245;BME280;61460;41.158;-73.238;2023-05-29T11:29:36;101538.42;;;26.07;44.83
73245;BME280;61460;41.158;-73.238;2023-05-29T11:32:12;101541.11;;;26.17;44.34
73245;BME280;61460;41.158;-73.238;2023-05-29T11:34:40;101542.80;;;26.18;44.07
73245;BME280;61460;41.158;-73.238;2023-05-29T11:37:08;101551.27;;;26.19;43.84
73245;BME280;61460;41.158;-73.238;2023-05-29T11:39:38;101555.32;;;26.04;44.19
73245;BME280;61460;41.158;-73.238;2023-05-29T11:42:09;101559.80;;;26.25;43.77
73245;BME280;61460;41.158;-73.238;2023-05-29T11:44:39;101564.22;;;26.20;43.65
73245;BME280;61460;41.158;-73.238;2023-05-29T11:47:10;101567.98;;;26.29;42.98
73245;BME280;61460;41.158;-73.238;2023-05-29T11:49:40;101571.49;;;26.29;42.68
73245;BME280;61460;41.158;-73.238;2023-05-29T11:52:13;101578.27;;;26.28;42.21
73245;BME280;61460;41.158;-73.238;2023-05-29T11:54:41;101586.11;;;26.44;41.43
73245;BME280;61460;41.158;-73.238;2023-05-29T11:57:10;101585.15;;;26.47;41.29
73245;BME280;61460;41.158;-73.238;2023-05-29T11:59:42;101588.97;;;26.36;41.36
73245;BME280;61460;41.158;-73.238;2023-05-29T12:02:11;101595.86;;;26.45;40.97
73245;BME280;61460;41.158;-73.238;2023-05-29T12:04:41;101588.52;;;26.35;41.35
73245;BME280;61460;41.158;-73.238;2023-05-29T12:07:17;101600.94;;;26.36;41.03
73245;BME280;61460;41.158;-73.238;2023-05-29T12:09:42;101595.88;;;26.39;40.96
73245;BME280;61460;41.158;-73.238;2023-05-29T12:12:13;101603.50;;;26.39;40.70
73245;BME280;61460;41.158;-73.238;2023-05-29T12:14:43;101604.52;;;26.33;41.08
73245;BME280;61460;41.158;-73.238;2023-05-29T12:17:13;101613.93;;;26.29;41.43
73245;BME280;61460;41.158;-73.238;2023-05-29T12:19:43;101616.48;;;26.51;40.35
73245;BME280;61460;41.158;-73.238;2023-05-29T12:22:14;101620.10;;;26.49;40.33
73245;BME280;61460;41.158;-73.238;2023-05-29T12:24:45;101619.00;;;26.52;40.60
73245;BME280;61460;41.158;-73.238;2023-05-29T12:27:16;101622.17;;;26.67;40.34
73245;BME280;61460;41.158;-73.238;2023-05-29T12:29:46;101618.68;;;26.60;40.38
73245;BME280;61460;41.158;-73.238;2023-05-29T12:32:17;101623.99;;;26.55;40.34
73245;BME280;61460;41.158;-73.238;2023-05-29T12:34:49;101623.24;;;26.81;36.94
73245;BME280;61460;41.158;-73.238;2023-05-29T12:37:22;101624.17;;;26.63;39.41
73245;BME280;61460;41.158;-73.238;2023-05-29T12:42:19;101618.61;;;26.56;39.33
73245;BME280;61460;41.158;-73.238;2023-05-29T12:44:49;101629.59;;;26.63;39.30
73245;BME280;61460;41.158;-73.238;2023-05-29T12:47:23;101632.06;;;26.67;39.22
73245;BME280;61460;41.158;-73.238;2023-05-29T12:49:49;101628.78;;;26.77;38.43
73245;BME280;61460;41.158;-73.238;2023-05-29T12:52:21;101635.76;;;26.79;38.26
73245;BME280;61460;41.158;-73.238;2023-05-29T12:54:50;101642.42;;;26.81;37.44
73245;BME280;61460;41.158;-73.238;2023-05-29T12:57:21;101633.62;;;26.79;37.64